createdAt,value
2019-01-27T00:03:59.674Z,4.90
2019-01-27T00:09:01.116Z,4.90
2019-01-27T00:14:03.080Z,4.90
2019-01-27T00:19:04.453Z,4.90
2019-01-27T00:24:05.725Z,4.90
2019-01-27T00:29:07.384Z,4.90
2019-01-27T00:34:08.643Z,5.00
2019-01-27T00:39:10.311Z,5.00
2019-01-27T00:44:11.661Z,5.00
2019-01-27T00:49:12.903Z,5.00
2019-01-27T00:54:14.199Z,5.00
2019-01-27T00:59:15.445Z,5.00
2019-01-27T01:04:16.798Z,5.00
2019-01-27T01:09:18.054Z,5.00
2019-01-27T01:14:19.306Z,5.00
2019-01-27T01:19:20.642Z,4.90
2019-01-27T01:24:21.868Z,5.00
2019-01-27T01:29:23.210Z,5.00
2019-01-27T01:34:24.481Z,5.00
2019-01-27T01:39:25.815Z,5.10
2019-01-27T01:44:27.069Z,5.20
2019-01-27T01:49:28.325Z,5.20
2019-01-27T01:54:29.699Z,5.20
2019-01-27T01:59:30.948Z,5.30
2019-01-27T02:04:32.195Z,5.30
2019-01-27T02:09:33.421Z,5.30
2019-01-27T02:14:34.668Z,5.40
2019-01-27T02:19:36.052Z,5.40
2019-01-27T02:24:37.312Z,5.50
2019-01-27T02:29:38.583Z,5.40
2019-01-27T02:34:39.839Z,5.40
2019-01-27T02:39:41.066Z,5.40
2019-01-27T02:44:42.314Z,5.40
2019-01-27T02:49:43.594Z,5.40
2019-01-27T02:54:44.825Z,5.40
2019-01-27T02:59:46.075Z,5.40
2019-01-27T03:04:47.313Z,5.40
2019-01-27T03:09:48.571Z,5.40
2019-01-27T03:14:49.804Z,5.40
2019-01-27T03:19:51.043Z,5.40
2019-01-27T03:24:52.286Z,5.40
2019-01-27T03:29:53.536Z,5.40
2019-01-27T03:34:54.795Z,5.40
2019-01-27T03:39:56.035Z,5.30
2019-01-27T03:44:57.287Z,5.20
2019-01-27T03:49:58.524Z,5.10
2019-01-27T03:54:59.765Z,5.10
2019-01-27T04:00:01.466Z,5.20
2019-01-27T04:05:04.438Z,5.10
2019-01-27T04:10:21.904Z,5.10
2019-01-27T04:15:23.442Z,5.00
2019-01-27T04:20:24.781Z,5.00
2019-01-27T04:25:26.020Z,5.00
2019-01-27T04:30:31.915Z,5.00
2019-01-27T04:35:33.209Z,5.00
2019-01-27T04:40:34.448Z,5.00
2019-01-27T04:45:37.199Z,5.00
2019-01-27T04:50:38.438Z,5.00
2019-01-27T04:55:39.794Z,5.00
2019-01-27T05:00:41.052Z,5.10
2019-01-27T05:05:42.397Z,5.00
2019-01-27T05:10:43.676Z,5.10
2019-01-27T05:15:44.941Z,5.10
2019-01-27T05:20:46.192Z,5.10
2019-01-27T05:25:47.475Z,5.10
2019-01-27T05:30:48.695Z,5.00
2019-01-27T05:35:49.936Z,5.00
2019-01-27T05:40:51.178Z,5.00
2019-01-27T05:45:52.426Z,5.10
2019-01-27T05:50:53.721Z,5.00
2019-01-27T05:55:55.005Z,5.10
2019-01-27T06:00:56.228Z,5.10
2019-01-27T06:05:57.480Z,5.10
2019-01-27T06:10:58.711Z,5.10
2019-01-27T06:15:59.956Z,5.20
2019-01-27T06:21:01.210Z,5.20
2019-01-27T06:26:02.653Z,5.20
2019-01-27T06:31:04.000Z,5.10
2019-01-27T06:36:05.466Z,5.20
2019-01-27T06:41:06.744Z,5.20
2019-01-27T06:46:07.991Z,5.30
2019-01-27T06:51:09.276Z,5.30
2019-01-27T06:56:10.609Z,5.30
2019-01-27T07:01:13.765Z,5.30
2019-01-27T07:06:31.754Z,5.30
2019-01-27T07:11:34.893Z,5.30
2019-01-27T07:16:40.941Z,5.30
2019-01-27T07:21:44.092Z,5.40
2019-01-27T07:26:59.406Z,5.50
2019-01-27T07:32:02.648Z,5.50
2019-01-27T07:37:22.507Z,5.70
2019-01-27T07:42:31.895Z,5.60
2019-01-27T07:47:37.670Z,5.60
2019-01-27T07:52:53.018Z,5.60
2019-01-27T07:58:01.985Z,5.60
2019-01-27T08:03:11.799Z,5.70
2019-01-27T08:08:16.430Z,5.80
2019-01-27T08:13:25.599Z,5.90
2019-01-27T08:18:28.805Z,5.90
2019-01-27T08:23:31.943Z,6.00
2019-01-27T08:28:35.082Z,6.10
2019-01-27T08:33:41.146Z,6.10
2019-01-27T08:38:44.309Z,6.10
2019-01-27T08:44:04.149Z,6.20
2019-01-27T08:49:05.399Z,6.30
2019-01-27T08:54:06.650Z,6.30
2019-01-27T08:59:07.926Z,6.50
2019-01-27T09:04:11.091Z,6.60
2019-01-27T09:09:14.251Z,6.60
2019-01-27T09:14:17.509Z,6.60
2019-01-27T09:19:20.670Z,6.60
2019-01-27T09:24:42.069Z,6.50
2019-01-27T09:29:45.233Z,6.50
2019-01-27T09:34:48.433Z,6.50
2019-01-27T09:40:06.894Z,6.50
2019-01-27T09:45:12.438Z,6.60
2019-01-27T09:50:24.596Z,6.70
2019-01-27T09:55:44.708Z,6.90
2019-01-27T10:00:48.091Z,6.90
2019-01-27T10:06:00.210Z,7.20
2019-01-27T10:11:03.486Z,7.40
2019-01-27T10:16:12.663Z,7.60
2019-01-27T10:21:15.834Z,7.80
2019-01-27T10:26:18.988Z,7.70
2019-01-27T10:31:25.061Z,7.60
2019-01-27T10:36:28.221Z,7.80
2019-01-27T10:41:46.612Z,7.80
2019-01-27T10:46:52.415Z,7.60
2019-01-27T10:51:58.723Z,7.10
2019-01-27T10:57:05.026Z,6.80
2019-01-27T11:02:14.559Z,6.60
2019-01-27T11:07:23.744Z,6.50
2019-01-27T11:12:29.605Z,6.80
2019-01-27T11:17:35.760Z,7.20
2019-01-27T11:22:54.000Z,7.50
2019-01-27T11:28:12.466Z,7.50
2019-01-27T11:33:33.893Z,7.40
2019-01-27T11:38:52.110Z,7.40
2019-01-27T11:43:58.066Z,7.50
2019-01-27T11:49:01.242Z,7.50
2019-01-27T11:54:02.838Z,7.70
2019-01-27T11:59:04.503Z,7.70
2019-01-27T12:04:05.752Z,7.90
2019-01-27T12:09:07.529Z,8.10
2019-01-27T12:14:08.830Z,8.20
2019-01-27T12:19:10.111Z,8.10
2019-01-27T12:24:12.020Z,7.90
2019-01-27T12:29:13.283Z,7.70
2019-01-27T12:34:14.563Z,7.40
2019-01-27T12:39:15.862Z,7.30
2019-01-27T12:44:17.107Z,7.40
2019-01-27T12:49:18.363Z,7.50
2019-01-27T12:54:19.626Z,7.50
2019-01-27T12:59:21.511Z,7.60
2019-01-27T13:04:22.855Z,7.60
2019-01-27T13:09:24.092Z,7.60
2019-01-27T13:14:25.362Z,7.50
2019-01-27T13:19:26.635Z,7.60
2019-01-27T13:24:27.887Z,7.60
2019-01-27T13:29:29.141Z,7.60
2019-01-27T13:34:30.399Z,7.90
2019-01-27T13:39:31.839Z,8.00
2019-01-27T13:44:33.210Z,8.00
2019-01-27T13:49:34.451Z,8.10
2019-01-27T13:54:35.719Z,8.20
2019-01-27T13:59:37.121Z,8.10
2019-01-27T14:04:38.472Z,8.10
2019-01-27T14:09:39.705Z,8.00
2019-01-27T14:14:41.210Z,8.00
2019-01-27T14:19:42.568Z,7.90
2019-01-27T14:24:43.997Z,7.90
2019-01-27T14:29:45.264Z,8.00
2019-01-27T14:34:46.511Z,8.00
2019-01-27T14:39:48.716Z,8.00
2019-01-27T14:44:50.107Z,7.80
2019-01-27T14:49:51.354Z,7.90
2019-01-27T14:54:52.619Z,7.90
2019-01-27T14:59:53.890Z,7.90
2019-01-27T15:04:55.163Z,7.90
2019-01-27T15:09:56.450Z,7.90
2019-01-27T15:14:57.820Z,7.80
2019-01-27T15:19:59.090Z,7.80
2019-01-27T15:25:09.519Z,7.70
2019-01-27T15:30:16.327Z,7.70
2019-01-27T15:35:17.987Z,7.70
2019-01-27T15:40:19.961Z,7.70
2019-01-27T15:45:29.817Z,7.80
2019-01-27T15:50:36.052Z,7.70
2019-01-27T15:55:37.754Z,7.60
2019-01-27T16:00:39.221Z,7.40
2019-01-27T16:05:40.528Z,7.20
2019-01-27T16:10:41.939Z,7.10
2019-01-27T16:15:43.212Z,7.10
2019-01-27T16:20:44.598Z,7.00
2019-01-27T16:25:46.211Z,7.00
2019-01-27T16:30:58.379Z,7.10
2019-01-27T16:36:00.556Z,7.10
2019-01-27T16:41:01.927Z,7.10
2019-01-27T16:46:03.721Z,7.00
2019-01-27T16:51:05.289Z,7.00
2019-01-27T16:56:06.785Z,7.00
2019-01-27T17:01:08.082Z,7.10
2019-01-27T17:06:09.653Z,7.00
2019-01-27T17:11:11.165Z,6.70
2019-01-27T17:16:12.519Z,6.60
2019-01-27T17:21:13.795Z,6.50
2019-01-27T17:26:15.266Z,6.30
2019-01-27T17:31:16.634Z,6.20
2019-01-27T17:36:18.016Z,6.20
2019-01-27T17:41:19.510Z,6.20
2019-01-27T17:46:20.841Z,6.10
2019-01-27T17:51:22.075Z,6.00
2019-01-27T17:56:23.736Z,5.90
2019-01-27T18:01:43.672Z,5.90
2019-01-27T18:06:49.708Z,5.90
2019-01-27T18:12:04.854Z,5.70
2019-01-27T18:17:06.233Z,5.70
2019-01-27T18:22:07.607Z,5.60
2019-01-27T18:27:08.882Z,5.50
2019-01-27T18:32:10.238Z,5.50
2019-01-27T18:37:11.514Z,5.40
2019-01-27T18:42:12.886Z,5.40
2019-01-27T18:47:14.284Z,5.40
2019-01-27T18:52:15.879Z,5.30
2019-01-27T18:57:19.024Z,5.30
2019-01-27T19:02:22.205Z,5.20
2019-01-27T19:07:25.354Z,5.20
2019-01-27T19:12:43.537Z,5.10
2019-01-27T19:17:49.396Z,5.10
2019-01-27T19:22:52.594Z,5.00
2019-01-27T19:27:55.776Z,5.00
2019-01-27T19:33:01.537Z,5.00
2019-01-27T19:38:07.938Z,4.90
2019-01-27T19:43:16.970Z,4.90
2019-01-27T19:48:22.822Z,4.90
2019-01-27T19:53:42.866Z,4.80
2019-01-27T19:58:51.715Z,4.70
2019-01-27T20:03:54.891Z,4.70
2019-01-27T20:09:00.972Z,4.80
2019-01-27T20:14:04.326Z,4.70
2019-01-27T20:19:10.176Z,4.70
2019-01-27T20:24:19.051Z,4.50
2019-01-27T20:29:22.310Z,4.50
2019-01-27T20:34:31.093Z,4.30
2019-01-27T20:39:34.299Z,4.20
2019-01-27T20:44:40.065Z,4.20
2019-01-27T20:49:43.582Z,4.10
2019-01-27T20:54:58.747Z,4.10
2019-01-27T21:00:02.017Z,4.10
2019-01-27T21:05:08.412Z,4.00
2019-01-27T21:10:16.202Z,4.00
2019-01-27T21:15:19.983Z,3.90
2019-01-27T21:20:21.287Z,3.90
2019-01-27T21:25:22.557Z,3.80
2019-01-27T21:30:23.837Z,3.70
2019-01-27T21:35:25.102Z,3.60
2019-01-27T21:40:26.400Z,3.60
2019-01-27T21:45:27.676Z,3.50
2019-01-27T21:50:28.949Z,3.50
2019-01-27T21:55:30.206Z,3.40
2019-01-27T22:00:31.621Z,3.30
2019-01-27T22:05:32.972Z,3.20
2019-01-27T22:10:34.235Z,3.10
2019-01-27T22:15:35.602Z,3.10
2019-01-27T22:20:36.967Z,3.10
2019-01-27T22:25:38.260Z,3.00
2019-01-27T22:30:39.718Z,3.00
2019-01-27T22:35:40.964Z,2.90
2019-01-27T22:40:42.246Z,2.90
2019-01-27T22:45:43.596Z,2.80
2019-01-27T22:50:45.060Z,2.90
2019-01-27T22:55:46.317Z,2.90
2019-01-27T23:00:55.194Z,3.00
2019-01-27T23:05:56.660Z,3.10
2019-01-27T23:10:57.998Z,3.10
2019-01-27T23:15:59.354Z,3.20
2019-01-27T23:21:00.699Z,3.20
2019-01-27T23:26:02.154Z,3.10
2019-01-27T23:31:03.722Z,3.10
2019-01-27T23:36:05.163Z,3.10
2019-01-27T23:41:06.511Z,3.10
2019-01-27T23:46:07.755Z,3.00
2019-01-27T23:51:09.017Z,3.00
2019-01-27T23:56:10.242Z,3.00
